createdAt,value
2022-12-24T00:01:01.408Z,2.50
2022-12-24T00:03:29.411Z,2.00
2022-12-24T00:05:57.414Z,2.00
2022-12-24T00:08:25.281Z,3.25
2022-12-24T00:10:54.844Z,3.00
2022-12-24T00:13:22.759Z,2.50
2022-12-24T00:15:50.644Z,3.00
2022-12-24T00:18:18.500Z,3.00
2022-12-24T00:20:47.334Z,2.00
2022-12-24T00:23:15.217Z,2.00
2022-12-24T00:25:43.092Z,2.75
2022-12-24T00:28:12.386Z,2.75
2022-12-24T00:30:40.794Z,3.50
2022-12-24T00:33:08.772Z,6.00
2022-12-24T00:35:36.778Z,7.00
2022-12-24T00:38:05.105Z,9.00
2022-12-24T00:40:33.335Z,9.25
2022-12-24T00:43:01.237Z,7.75
2022-12-24T00:45:30.476Z,9.00
2022-12-24T00:47:58.370Z,8.00
2022-12-24T00:50:26.318Z,8.50
2022-12-24T00:52:54.190Z,11.00
2022-12-24T00:55:22.085Z,9.50
2022-12-24T00:57:49.991Z,10.25
2022-12-24T01:00:18.555Z,11.75
2022-12-24T01:02:48.061Z,12.00
2022-12-24T01:05:15.136Z,10.75
2022-12-24T01:07:44.546Z,10.00
2022-12-24T01:10:13.209Z,12.00
2022-12-24T01:12:41.141Z,11.50
2022-12-24T01:15:10.621Z,12.50
2022-12-24T01:17:38.520Z,11.00
2022-12-24T01:20:09.720Z,12.25
2022-12-24T01:22:37.646Z,11.00
2022-12-24T01:25:06.197Z,11.00
2022-12-24T01:27:34.173Z,11.50
2022-12-24T01:30:02.352Z,11.25
2022-12-24T01:32:30.200Z,10.75
2022-12-24T01:34:58.066Z,11.00
2022-12-24T01:37:27.345Z,10.00
2022-12-24T01:40:15.903Z,9.00
2022-12-24T01:43:02.899Z,9.75
2022-12-24T01:45:45.686Z,8.25
2022-12-24T01:48:37.885Z,9.25
2022-12-24T01:51:08.141Z,8.50
2022-12-24T01:53:38.032Z,10.50
2022-12-24T01:56:06.452Z,9.00
2022-12-24T01:58:34.759Z,9.00
2022-12-24T02:01:03.067Z,10.25
2022-12-24T02:03:31.024Z,8.25
2022-12-24T02:05:59.442Z,9.00
2022-12-24T02:08:40.193Z,8.75
2022-12-24T02:11:17.091Z,9.25
2022-12-24T02:13:45.860Z,9.00
2022-12-24T02:16:19.459Z,8.00
2022-12-24T02:18:50.851Z,8.00
2022-12-24T02:21:47.344Z,7.75
2022-12-24T02:24:46.381Z,6.00
2022-12-24T02:27:26.556Z,7.75
2022-12-24T02:30:10.415Z,6.00
2022-12-24T02:32:44.873Z,6.50
2022-12-24T02:35:13.816Z,7.25
2022-12-24T02:37:43.409Z,7.00
2022-12-24T02:40:16.513Z,7.25
2022-12-24T02:42:48.008Z,6.25
2022-12-24T02:45:18.062Z,6.00
2022-12-24T02:47:46.251Z,6.00
2022-12-24T02:50:15.928Z,5.25
2022-12-24T02:52:44.901Z,7.25
2022-12-24T02:55:14.207Z,7.00
2022-12-24T02:57:57.503Z,7.00
2022-12-24T03:00:26.851Z,6.00
2022-12-24T03:03:07.586Z,5.25
2022-12-24T03:05:39.352Z,6.75
2022-12-24T03:08:08.793Z,7.75
2022-12-24T03:10:39.041Z,5.50
2022-12-24T03:13:08.752Z,4.75
2022-12-24T03:15:37.990Z,5.25
2022-12-24T03:18:06.586Z,4.00
2022-12-24T03:20:36.024Z,4.00
2022-12-24T03:23:04.060Z,4.50
2022-12-24T03:25:31.953Z,5.00
2022-12-24T03:27:59.857Z,5.00
2022-12-24T03:30:28.067Z,6.25
2022-12-24T03:32:57.350Z,4.25
2022-12-24T03:35:25.664Z,3.00
2022-12-24T03:37:53.521Z,5.00
2022-12-24T03:40:21.698Z,5.00
2022-12-24T03:42:49.613Z,3.50
2022-12-24T03:45:17.560Z,3.75
2022-12-24T03:47:45.418Z,3.00
2022-12-24T03:50:15.125Z,4.25
2022-12-24T03:52:43.008Z,5.00
2022-12-24T03:55:10.998Z,3.75
2022-12-24T03:57:38.913Z,4.75
2022-12-24T04:00:10.468Z,4.00
2022-12-24T04:02:38.526Z,3.75
2022-12-24T04:05:07.730Z,3.00
2022-12-24T04:07:37.306Z,4.00
2022-12-24T04:10:06.141Z,3.00
2022-12-24T04:12:34.130Z,4.00
2022-12-24T04:15:02.001Z,3.25
2022-12-24T04:17:29.873Z,4.00
2022-12-24T04:19:58.043Z,3.00
2022-12-24T04:22:25.977Z,3.50
2022-12-24T04:24:55.275Z,3.00
2022-12-24T04:27:29.959Z,3.00
2022-12-24T04:29:58.839Z,3.00
2022-12-24T04:32:28.023Z,4.00
2022-12-24T04:34:55.899Z,3.00
2022-12-24T04:37:23.808Z,3.00
2022-12-24T04:39:52.052Z,2.00
2022-12-24T04:42:21.330Z,3.00
2022-12-24T04:44:49.239Z,3.00
2022-12-24T04:47:17.158Z,3.00
2022-12-24T04:49:45.313Z,2.50
2022-12-24T04:52:13.412Z,2.75
2022-12-24T04:54:41.368Z,3.25
2022-12-24T04:57:09.225Z,2.50
2022-12-24T04:59:38.770Z,2.25
2022-12-24T05:02:06.779Z,3.00
2022-12-24T05:04:34.805Z,2.00
2022-12-24T05:07:02.698Z,3.00
2022-12-24T05:09:30.868Z,3.00
2022-12-24T05:11:58.734Z,3.00
2022-12-24T05:14:26.598Z,3.00
2022-12-24T05:16:55.954Z,3.00
2022-12-24T05:19:23.840Z,2.00
2022-12-24T05:22:05.885Z,3.00
2022-12-24T05:24:51.313Z,3.00
2022-12-24T05:27:19.291Z,2.50
2022-12-24T05:29:47.458Z,3.00
2022-12-24T05:32:16.720Z,3.00
2022-12-24T05:34:44.634Z,2.50
2022-12-24T05:37:12.523Z,3.50
2022-12-24T05:39:40.725Z,2.50
2022-12-24T05:42:08.915Z,2.25
2022-12-24T05:44:37.349Z,3.00
2022-12-24T05:47:05.433Z,3.00
2022-12-24T05:49:34.989Z,2.00
2022-12-24T05:52:03.018Z,2.25
2022-12-24T05:54:30.980Z,2.50
2022-12-24T05:56:58.915Z,2.75
2022-12-24T05:59:26.804Z,3.00
2022-12-24T06:01:54.988Z,2.50
2022-12-24T06:04:28.364Z,2.00
2022-12-24T06:06:58.428Z,3.25
2022-12-24T06:09:26.349Z,2.00
2022-12-24T06:11:54.756Z,2.75
2022-12-24T06:14:22.608Z,2.00
2022-12-24T06:16:50.479Z,3.00
2022-12-24T06:19:18.329Z,2.25
2022-12-24T06:21:46.449Z,2.75
2022-12-24T06:24:16.002Z,3.00
2022-12-24T06:26:43.902Z,5.00
2022-12-24T06:29:11.822Z,4.25
2022-12-24T06:31:40.400Z,5.75
2022-12-24T06:34:08.319Z,5.00
2022-12-24T06:36:36.191Z,7.25
2022-12-24T06:39:04.221Z,7.00
2022-12-24T06:41:33.760Z,8.00
2022-12-24T06:44:01.692Z,8.00
2022-12-24T06:46:29.636Z,8.75
2022-12-24T06:48:57.513Z,9.75
2022-12-24T06:51:25.719Z,10.00
2022-12-24T06:53:53.665Z,10.50
2022-12-24T06:56:21.597Z,11.00
2022-12-24T06:58:50.874Z,10.00
2022-12-24T07:01:19.937Z,10.50
2022-12-24T07:03:48.225Z,12.25
2022-12-24T07:06:18.949Z,10.25
2022-12-24T07:08:46.964Z,12.75
2022-12-24T07:11:15.210Z,12.75
2022-12-24T07:13:43.071Z,12.00
2022-12-24T07:16:12.502Z,10.75
2022-12-24T07:18:40.641Z,12.00
2022-12-24T07:21:08.573Z,11.50
2022-12-24T07:23:36.499Z,10.00
2022-12-24T07:26:04.756Z,10.50
2022-12-24T07:28:32.866Z,10.00
2022-12-24T07:31:01.275Z,11.75
2022-12-24T07:33:30.579Z,10.75
2022-12-24T07:36:02.394Z,9.00
2022-12-24T07:38:30.348Z,11.00
2022-12-24T07:40:58.598Z,10.00
2022-12-24T07:43:26.609Z,9.25
2022-12-24T07:45:56.298Z,10.25
2022-12-24T07:48:24.220Z,9.00
2022-12-24T07:50:53.824Z,11.75
2022-12-24T07:53:21.714Z,10.25
2022-12-24T07:55:49.608Z,9.75
2022-12-24T07:58:17.680Z,9.00
2022-12-24T08:00:46.969Z,10.50
2022-12-24T08:03:17.513Z,9.00
2022-12-24T08:05:45.563Z,7.00
2022-12-24T08:08:14.883Z,9.00
2022-12-24T08:10:44.651Z,9.00
2022-12-24T08:13:12.629Z,8.50
2022-12-24T08:15:40.540Z,7.00
2022-12-24T08:18:08.494Z,7.75
2022-12-24T08:20:38.503Z,9.75
2022-12-24T08:23:06.971Z,8.00
2022-12-24T08:25:36.736Z,7.00
2022-12-24T08:28:04.825Z,8.00
2022-12-24T08:30:32.993Z,8.00
2022-12-24T08:33:01.198Z,7.00
2022-12-24T08:35:29.249Z,6.00
2022-12-24T08:37:57.188Z,7.00
2022-12-24T08:40:25.393Z,6.75
2022-12-24T08:42:54.782Z,5.75
2022-12-24T08:45:22.798Z,7.25
2022-12-24T08:47:50.681Z,6.75
2022-12-24T08:50:19.216Z,6.50
2022-12-24T08:52:47.211Z,6.00
2022-12-24T08:55:15.108Z,7.00
2022-12-24T08:57:42.966Z,7.25
2022-12-24T09:00:14.071Z,5.00
2022-12-24T09:02:42.023Z,5.75
2022-12-24T09:05:10.344Z,6.00
2022-12-24T09:07:38.294Z,6.00
2022-12-24T09:10:08.895Z,7.00
2022-12-24T09:12:36.797Z,6.75
2022-12-24T09:15:08.214Z,5.50
2022-12-24T09:17:37.774Z,5.00
2022-12-24T09:20:07.763Z,5.00
2022-12-24T09:22:35.787Z,6.00
2022-12-24T09:25:04.823Z,5.00
2022-12-24T09:27:32.839Z,6.00
2022-12-24T09:30:01.065Z,6.00
2022-12-24T09:32:28.952Z,5.50
2022-12-24T09:34:58.312Z,5.00
2022-12-24T09:37:26.224Z,5.75
2022-12-24T09:39:54.406Z,5.25
2022-12-24T09:42:28.019Z,4.50
2022-12-24T09:45:00.696Z,5.00
2022-12-24T09:47:30.448Z,5.00
2022-12-24T09:50:01.241Z,4.25
2022-12-24T09:52:30.864Z,5.00
2022-12-24T09:55:02.524Z,5.50
2022-12-24T09:57:33.014Z,6.00
2022-12-24T10:00:01.212Z,6.50
2022-12-24T10:02:29.274Z,7.75
2022-12-24T10:04:57.287Z,7.25
2022-12-24T10:07:32.617Z,6.25
2022-12-24T10:10:04.603Z,10.75
2022-12-24T10:12:34.235Z,10.00
2022-12-24T10:15:04.668Z,10.50
2022-12-24T10:17:41.146Z,10.50
2022-12-24T10:20:22.468Z,10.25
2022-12-24T10:22:55.095Z,11.00
2022-12-24T10:25:24.171Z,11.00
2022-12-24T10:27:52.024Z,11.00
2022-12-24T10:30:21.885Z,12.00
2022-12-24T10:32:51.364Z,11.50
2022-12-24T10:35:22.047Z,12.00
2022-12-24T10:37:52.595Z,12.00
2022-12-24T10:40:27.321Z,11.25
2022-12-24T10:42:55.267Z,11.00
2022-12-24T10:45:24.102Z,12.00
2022-12-24T10:47:54.133Z,13.00
2022-12-24T10:50:25.422Z,13.25
2022-12-24T10:52:54.821Z,13.75
2022-12-24T10:55:24.634Z,14.25
2022-12-24T10:57:59.731Z,15.00
2022-12-24T11:00:35.322Z,15.75
2022-12-24T11:03:08.691Z,16.75
2022-12-24T11:05:37.899Z,18.00
2022-12-24T11:08:08.316Z,16.50
2022-12-24T11:10:36.969Z,18.00
2022-12-24T11:13:36.377Z,18.50
2022-12-24T11:15:53.541Z,18.75
2022-12-24T11:18:21.471Z,19.75
2022-12-24T11:20:50.620Z,18.50
2022-12-24T11:23:19.924Z,20.00
2022-12-24T11:25:49.129Z,20.25
2022-12-24T11:28:22.241Z,20.00
2022-12-24T11:31:02.058Z,20.50
2022-12-24T11:33:30.241Z,21.00
2022-12-24T11:36:02.193Z,18.75
2022-12-24T11:38:32.092Z,18.00
2022-12-24T11:41:08.053Z,21.25
2022-12-24T11:43:46.752Z,16.75
2022-12-24T11:46:20.397Z,18.75
2022-12-24T11:48:48.535Z,20.75
2022-12-24T11:51:24.505Z,18.25
2022-12-24T11:53:58.960Z,17.00
2022-12-24T11:56:33.645Z,19.00
2022-12-24T11:59:03.663Z,18.50
2022-12-24T12:01:34.551Z,19.25
2022-12-24T12:04:03.628Z,17.25
2022-12-24T12:06:34.460Z,16.25
2022-12-24T12:09:05.648Z,15.25
2022-12-24T12:11:33.951Z,17.75
2022-12-24T12:14:02.136Z,18.50
2022-12-24T12:16:52.073Z,17.50
2022-12-24T12:19:19.953Z,15.00
2022-12-24T12:21:48.505Z,16.00
2022-12-24T12:24:20.353Z,15.50
2022-12-24T12:26:48.313Z,14.00
2022-12-24T12:29:22.560Z,16.00
2022-12-24T12:31:50.867Z,14.50
2022-12-24T12:34:20.094Z,14.00
2022-12-24T12:36:49.787Z,15.00
2022-12-24T12:39:19.090Z,15.50
2022-12-24T12:41:52.187Z,14.50
2022-12-24T12:44:29.252Z,14.50
2022-12-24T12:47:07.834Z,15.25
2022-12-24T12:49:40.798Z,17.25
2022-12-24T12:52:13.648Z,17.25
2022-12-24T12:54:52.431Z,17.00
2022-12-24T12:57:21.532Z,17.50
2022-12-24T12:59:51.798Z,20.00
2022-12-24T13:02:39.589Z,18.25
2022-12-24T13:05:54.972Z,19.75
2022-12-24T13:08:46.478Z,20.25
2022-12-24T13:11:25.445Z,21.00
2022-12-24T13:14:01.831Z,20.00
2022-12-24T13:16:43.193Z,20.25
2022-12-24T13:19:18.402Z,20.50
2022-12-24T13:21:48.802Z,18.75
2022-12-24T13:24:17.844Z,22.75
2022-12-24T13:27:01.645Z,22.00
2022-12-24T13:29:41.902Z,22.50
2022-12-24T13:32:55.085Z,20.00
2022-12-24T13:35:59.036Z,18.50
2022-12-24T13:38:35.966Z,20.25
2022-12-24T13:41:51.598Z,20.00
2022-12-24T13:44:33.758Z,20.75
2022-12-24T13:47:26.853Z,18.75
2022-12-24T13:49:59.934Z,20.00
2022-12-24T13:52:30.084Z,20.00
2022-12-24T13:55:15.787Z,18.75
2022-12-24T13:57:47.975Z,16.00
2022-12-24T14:00:35.115Z,18.50
2022-12-24T14:03:05.915Z,17.25
2022-12-24T14:05:35.537Z,18.00
2022-12-24T14:08:04.359Z,19.75
2022-12-24T14:10:33.323Z,19.25
2022-12-24T14:13:02.674Z,16.00
2022-12-24T14:16:03.462Z,17.00
2022-12-24T14:18:36.515Z,16.25
2022-12-24T14:21:04.473Z,15.75
2022-12-24T14:23:49.341Z,17.50
2022-12-24T14:26:18.018Z,15.75
2022-12-24T14:28:48.712Z,16.25
2022-12-24T14:31:18.052Z,14.75
2022-12-24T14:33:45.980Z,15.00
2022-12-24T14:36:14.919Z,16.25
2022-12-24T14:38:43.450Z,14.50
2022-12-24T14:41:19.621Z,13.75
2022-12-24T14:43:53.155Z,13.00
2022-12-24T14:46:24.926Z,14.25
2022-12-24T14:48:54.535Z,13.00
2022-12-24T14:51:25.183Z,13.75
2022-12-24T14:54:06.772Z,12.00
2022-12-24T14:56:34.721Z,11.25
2022-12-24T14:59:15.074Z,11.00
2022-12-24T15:01:43.069Z,11.50
2022-12-24T15:04:16.603Z,12.00
2022-12-24T15:06:47.889Z,12.50
2022-12-24T15:09:18.556Z,12.25
2022-12-24T15:11:47.259Z,11.75
2022-12-24T15:14:16.546Z,11.00
2022-12-24T15:16:44.540Z,10.00
2022-12-24T15:19:14.893Z,12.50
2022-12-24T15:21:44.202Z,11.00
2022-12-24T15:24:25.209Z,9.25
2022-12-24T15:26:53.117Z,11.75
2022-12-24T15:29:24.831Z,9.50
2022-12-24T15:31:56.431Z,10.75
2022-12-24T15:34:28.332Z,9.75
2022-12-24T15:37:02.655Z,10.00
2022-12-24T15:39:30.807Z,9.75
2022-12-24T15:42:18.536Z,10.75
2022-12-24T15:44:51.845Z,8.75
2022-12-24T15:47:21.834Z,9.00
2022-12-24T15:49:51.177Z,9.75
2022-12-24T15:52:19.564Z,9.00
2022-12-24T15:54:53.682Z,10.25
2022-12-24T15:57:26.349Z,8.50
2022-12-24T15:59:57.378Z,9.00
2022-12-24T16:02:37.458Z,9.50
2022-12-24T16:05:34.426Z,9.00
2022-12-24T16:08:09.942Z,10.00
2022-12-24T16:10:40.072Z,9.25
2022-12-24T16:13:16.004Z,9.00
2022-12-24T16:15:51.097Z,9.25
2022-12-24T16:18:21.025Z,8.00
2022-12-24T16:20:50.366Z,9.00
2022-12-24T16:23:19.705Z,9.75
2022-12-24T16:25:47.564Z,7.25
2022-12-24T16:28:21.943Z,8.50
2022-12-24T16:30:55.575Z,7.75
2022-12-24T16:33:24.208Z,9.00
2022-12-24T16:35:52.093Z,8.00
2022-12-24T16:38:19.990Z,9.00
2022-12-24T16:40:48.262Z,7.75
2022-12-24T16:43:33.671Z,7.75
2022-12-24T16:46:03.567Z,8.00
2022-12-24T16:48:34.275Z,8.50
2022-12-24T16:51:02.426Z,9.25
2022-12-24T16:53:30.318Z,9.00
2022-12-24T16:55:58.269Z,7.75
2022-12-24T16:58:26.188Z,9.00
2022-12-24T17:00:54.103Z,9.00
2022-12-24T17:03:23.584Z,9.25
2022-12-24T17:05:51.683Z,8.75
2022-12-24T17:08:19.564Z,8.00
2022-12-24T17:10:51.653Z,8.75
2022-12-24T17:13:19.583Z,9.00
2022-12-24T17:15:47.725Z,9.00
2022-12-24T17:18:15.662Z,8.00
2022-12-24T17:20:45.178Z,10.00
2022-12-24T17:23:13.399Z,8.75
2022-12-24T17:25:41.291Z,9.00
2022-12-24T17:28:09.187Z,8.50
2022-12-24T17:30:37.382Z,8.75
2022-12-24T17:33:10.889Z,8.50
2022-12-24T17:35:42.140Z,8.00
2022-12-24T17:38:11.469Z,10.00
2022-12-24T17:40:39.634Z,8.00
2022-12-24T17:43:07.535Z,15.50
2022-12-24T17:45:35.487Z,14.25
2022-12-24T17:48:03.384Z,16.00
2022-12-24T17:50:31.541Z,19.75
2022-12-24T17:52:59.512Z,22.00
2022-12-24T17:55:28.825Z,22.00
2022-12-24T17:57:56.750Z,29.25
2022-12-24T18:00:29.535Z,33.00
2022-12-24T18:03:00.911Z,34.75
2022-12-24T18:05:28.927Z,28.00
2022-12-24T18:07:56.834Z,32.25
2022-12-24T18:10:24.995Z,42.75
2022-12-24T18:12:54.322Z,36.75
2022-12-24T18:15:22.436Z,42.50
2022-12-24T18:37:19.856Z,48.25
2022-12-24T18:39:48.169Z,47.50
2022-12-24T18:42:16.157Z,46.75
2022-12-24T18:44:44.461Z,46.25
2022-12-24T18:47:12.429Z,46.25
2022-12-24T18:49:40.476Z,48.25
2022-12-24T18:52:09.273Z,53.75
2022-12-24T18:54:38.865Z,53.50
2022-12-24T18:57:06.777Z,52.75
2022-12-24T18:59:36.527Z,51.00
2022-12-24T19:02:04.691Z,51.25
2022-12-24T19:04:32.918Z,53.00
2022-12-24T19:07:01.204Z,53.50
2022-12-24T19:09:29.109Z,56.50
2022-12-24T19:11:58.419Z,60.75
2022-12-24T19:14:26.322Z,59.50
2022-12-24T19:16:54.593Z,55.75
2022-12-24T19:19:24.038Z,53.50
2022-12-24T19:21:52.111Z,55.00
2022-12-24T19:24:20.373Z,53.25
2022-12-24T19:26:48.795Z,53.50
2022-12-24T19:29:18.095Z,53.75
2022-12-24T19:31:47.497Z,56.25
2022-12-24T19:34:15.569Z,58.00
2022-12-24T19:36:43.747Z,58.75
2022-12-24T19:39:11.657Z,55.50
2022-12-24T19:41:39.573Z,55.75
2022-12-24T19:44:07.525Z,54.75
2022-12-24T19:46:38.051Z,54.00
2022-12-24T19:49:07.601Z,54.25
2022-12-24T19:51:35.497Z,55.00
2022-12-24T19:54:03.582Z,57.25
2022-12-24T19:56:32.333Z,55.25
2022-12-24T19:59:00.860Z,55.75
2022-12-24T20:01:30.016Z,53.25
2022-12-24T20:03:59.533Z,53.50
2022-12-24T20:06:28.673Z,54.25
2022-12-24T20:09:00.015Z,53.25
2022-12-24T20:11:27.948Z,53.75
2022-12-24T20:13:57.689Z,61.25
2022-12-24T20:16:25.759Z,58.75
2022-12-24T20:18:53.789Z,61.75
2022-12-24T20:21:23.150Z,61.00
2022-12-24T20:23:51.104Z,65.25
2022-12-24T20:26:20.463Z,61.00
2022-12-24T20:28:48.838Z,63.00
2022-12-24T20:31:17.574Z,59.75
2022-12-24T20:33:45.918Z,63.25
2022-12-24T20:36:15.894Z,64.25
2022-12-24T20:38:45.198Z,66.75
2022-12-24T20:41:13.993Z,62.50
2022-12-24T20:43:47.766Z,63.00
2022-12-24T20:46:16.561Z,67.75
2022-12-24T20:48:44.658Z,62.00
2022-12-24T20:51:21.003Z,65.00
2022-12-24T20:53:52.956Z,66.00
2022-12-24T20:56:21.433Z,72.25
2022-12-24T20:58:49.351Z,65.00
2022-12-24T21:01:18.167Z,70.50
2022-12-24T21:03:46.190Z,66.75
2022-12-24T21:06:15.615Z,66.75
2022-12-24T21:08:43.870Z,68.75
2022-12-24T21:11:38.910Z,71.00
2022-12-24T21:14:06.863Z,73.25
2022-12-24T21:16:35.049Z,77.25
2022-12-24T21:19:02.971Z,72.25
2022-12-24T21:21:30.891Z,71.50
2022-12-24T21:23:59.000Z,72.50
2022-12-24T21:26:29.150Z,78.25
2022-12-24T21:28:57.257Z,77.75
2022-12-24T21:31:25.210Z,72.75
2022-12-24T21:33:53.161Z,72.00
2022-12-24T21:36:21.103Z,79.00
2022-12-24T21:38:49.073Z,78.75
2022-12-24T21:41:18.382Z,78.50
2022-12-24T21:43:47.843Z,75.75
2022-12-24T21:46:17.417Z,73.75
2022-12-24T21:49:17.307Z,76.00
2022-12-24T21:51:46.834Z,81.75
2022-12-24T21:54:30.678Z,75.25
2022-12-24T21:57:17.182Z,79.00
2022-12-24T21:59:46.479Z,87.25
2022-12-24T22:02:15.052Z,82.00
2022-12-24T22:04:43.385Z,84.00
2022-12-24T22:07:36.964Z,82.75
2022-12-24T22:10:22.811Z,82.00
2022-12-24T22:12:50.752Z,83.00
2022-12-24T22:15:20.231Z,85.50
2022-12-24T22:17:48.219Z,80.50
2022-12-24T22:20:16.282Z,81.50
2022-12-24T22:22:44.536Z,80.50
2022-12-24T22:25:12.447Z,83.75
2022-12-24T22:27:40.412Z,85.75
2022-12-24T22:30:10.889Z,82.75
2022-12-24T22:32:40.251Z,79.50
2022-12-24T22:35:08.995Z,83.75
2022-12-24T22:37:36.929Z,84.25
2022-12-24T22:40:05.285Z,83.00
2022-12-24T22:42:33.856Z,86.75
2022-12-24T22:45:01.743Z,84.75
2022-12-24T22:47:29.999Z,81.25
2022-12-24T22:49:59.254Z,80.00
2022-12-24T22:52:27.164Z,81.00
2022-12-24T22:54:55.121Z,82.00
2022-12-24T22:57:23.012Z,78.25
2022-12-24T22:59:51.008Z,76.00
2022-12-24T23:02:25.700Z,75.50
2022-12-24T23:04:56.122Z,77.00
2022-12-24T23:07:25.452Z,77.50
2022-12-24T23:09:53.336Z,74.25
2022-12-24T23:12:41.561Z,76.75
2022-12-24T23:15:09.723Z,80.00
2022-12-24T23:17:37.668Z,71.75
2022-12-24T23:20:06.424Z,74.25
2022-12-24T23:22:35.709Z,71.75
2022-12-24T23:25:03.929Z,69.75
2022-12-24T23:27:31.844Z,69.75
2022-12-24T23:29:59.746Z,68.25
2022-12-24T23:32:27.655Z,69.00
2022-12-24T23:34:55.889Z,68.75
2022-12-24T23:37:26.987Z,68.50
2022-12-24T23:40:00.450Z,66.25
2022-12-24T23:42:28.361Z,65.00
2022-12-24T23:44:56.302Z,62.50
2022-12-24T23:47:24.215Z,63.50
2022-12-24T23:49:52.112Z,61.50
2022-12-24T23:52:20.007Z,62.50
2022-12-24T23:54:47.965Z,61.50
2022-12-24T23:57:17.234Z,59.25
2022-12-24T23:59:45.483Z,61.50
